Time;durP1;ratioP1;P1;durP2;ratioP2;P2;SDS_P1;SDS_P2;PMS_P1;PMS_P2;Temp;Humidity;BMP_temperature;BMP_pressure;BME280_temperature;BME280_humidity;BME280_pressure;Samples;Min_cycle;Max_cycle;Signal;HPM_P1;HPM_P2
2022/05/09 00:00:31;;;;;;;6.50;3.40;;;;;;;13.71;45.69;95088.13;4142270;28;20116;-54
2022/05/09 00:02:33;;;;;;;6.80;3.65;;;;;;;13.74;46.02;95092.22;4142337;28;20066;-54
2022/05/09 00:04:35;;;;;;;9.43;3.70;;;;;;;13.75;46.21;95090.44;4141055;28;20108;-51
2022/05/09 00:06:37;;;;;;;6.85;3.58;;;;;;;13.73;46.17;95096.69;4138327;28;20132;-51
2022/05/09 00:08:41;;;;;;;6.80;3.63;;;;;;;13.70;45.96;95086.50;4139417;28;20105;-53
2022/05/09 00:10:43;;;;;;;12.75;3.97;;;;;;;13.69;46.05;95090.09;4142392;28;20073;-53
2022/05/09 00:12:45;;;;;;;5.38;3.60;;;;;;;13.68;46.17;95090.28;4141993;28;20200;-51
2022/05/09 00:14:47;;;;;;;7.90;3.97;;;;;;;13.49;46.70;95089.66;4141918;28;20050;-51
2022/05/09 00:16:51;;;;;;;6.07;3.33;;;;;;;13.47;46.66;95090.84;4142185;28;20049;-52
2022/05/09 00:18:53;;;;;;;8.45;3.63;;;;;;;13.44;46.74;95096.41;4141653;28;20053;-49
2022/05/09 00:20:55;;;;;;;7.45;3.30;;;;;;;12.94;47.79;95100.84;4142072;28;20312;-49
2022/05/09 00:22:57;;;;;;;6.40;3.55;;;;;;;12.86;48.25;95096.41;4140938;28;20124;-51
2022/05/09 00:25:00;;;;;;;7.30;2.92;;;;;;;12.88;47.99;95101.50;4142147;28;20054;-51
2022/05/09 00:27:02;;;;;;;5.72;3.28;;;;;;;12.96;47.78;95092.81;4141880;28;20134;-52
2022/05/09 00:29:04;;;;;;;9.50;3.40;;;;;;;13.03;47.20;95097.22;4142431;28;20092;-52
2022/05/09 00:31:06;;;;;;;6.45;3.17;;;;;;;13.08;47.50;95108.09;4145010;28;20057;-54
2022/05/09 00:33:08;;;;;;;6.47;2.95;;;;;;;13.06;46.86;95098.72;4144756;28;20136;-53
2022/05/09 00:35:11;;;;;;;4.53;2.72;;;;;;;12.79;46.89;95105.09;4145057;28;20058;-53
2022/05/09 00:37:13;;;;;;;5.15;2.95;;;;;;;12.55;47.25;95105.91;4144924;28;20233;-51
2022/05/09 00:39:16;;;;;;;5.63;2.90;;;;;;;12.41;47.72;95099.44;4143500;28;20050;-51
2022/05/09 00:43:40;;;;;;;5.60;2.80;;;;;;;12.10;48.59;95102.63;4144768;28;20049;-53
2022/05/09 00:45:42;;;;;;;;;;;;;;;11.92;48.78;95105.38;4145408;28;20084;-53
2022/05/09 00:47:44;;;;;;;5.70;3.13;;;;;;;11.92;49.01;95109.78;4142529;28;19925;-53
2022/05/09 00:49:52;;;;;;;3.53;2.53;;;;;;;11.91;49.53;95100.25;4139050;28;20104;-54
2022/05/09 00:52:05;;;;;;;5.20;2.33;;;;;;;11.79;49.62;95107.56;4143389;28;20049;-53
2022/05/09 00:54:07;;;;;;;7.93;3.20;;;;;;;11.63;50.04;95108.28;4141938;28;20061;-54
2022/05/09 00:56:17;;;;;;;10.95;3.65;;;;;;;11.41;50.98;95107.81;4143349;28;20062;-54
2022/05/09 00:58:40;;;;;;;10.90;5.13;;;;;;;11.37;51.88;95111.72;4142714;28;20061;-54
2022/05/09 01:00:45;;;;;;;9.77;5.32;;;;;;;11.26;52.22;95112.81;4144137;28;20053;-52
2022/05/09 01:03:01;;;;;;;13.00;5.93;;;;;;;11.28;52.55;95108.22;4143121;28;20156;-55
2022/05/09 01:05:04;;;;;;;17.75;7.35;;;;;;;11.10;53.44;95117.94;4144138;28;20050;-55
2022/05/09 01:07:06;;;;;;;13.43;6.85;;;;;;;11.29;52.69;95109.03;4140030;28;20117;-51
2022/05/09 01:09:10;;;;;;;11.80;5.80;;;;;;;11.51;52.50;95114.75;4141682;28;20132;-53
2022/05/09 01:11:20;;;;;;;12.93;5.55;;;;;;;11.73;52.08;95110.81;4144485;28;20100;-54
2022/05/09 01:13:23;;;;;;;9.65;5.60;;;;;;;11.95;51.68;95112.09;4144117;28;20061;-53
2022/05/09 01:15:25;;;;;;;12.30;5.40;;;;;;;12.09;50.93;95109.69;4143114;28;20072;-52
2022/05/09 01:17:28;;;;;;;7.70;4.60;;;;;;;12.23;50.53;95110.06;4144425;28;20430;-54
2022/05/09 01:19:39;;;;;;;12.20;4.43;;;;;;;12.31;49.86;95104.84;4144204;28;20474;-54
2022/05/09 01:21:41;;;;;;;9.55;4.32;;;;;;;12.37;49.62;95108.63;4144186;28;20046;-53
2022/05/09 01:23:43;;;;;;;7.68;5.32;;;;;;;12.44;49.49;95109.66;4142879;28;20049;-54
2022/05/09 01:25:45;;;;;;;10.90;4.75;;;;;;;12.50;49.27;95114.25;4144363;28;20057;-53
2022/05/09 01:27:47;;;;;;;8.25;4.30;;;;;;;12.58;48.86;95111.63;4144191;28;20136;-52
2022/05/09 01:29:52;;;;;;;11.15;4.45;;;;;;;12.62;48.50;95107.69;4144217;28;20428;-52
2022/05/09 01:31:56;;;;;;;7.32;3.50;;;;;;;12.64;48.40;95105.72;4142537;28;20053;-51
2022/05/09 01:34:00;;;;;;;7.22;3.35;;;;;;;12.59;47.90;95105.41;4135636;28;20061;-53
2022/05/09 01:36:16;;;;;;;10.35;3.83;;;;;;;12.60;48.47;95114.09;4144228;28;20054;-53
2022/05/09 01:38:30;;;;;;;6.95;3.35;;;;;;;12.63;48.21;95105.91;4142333;28;20206;-50
2022/05/09 01:40:32;;;;;;;6.05;3.08;;;;;;;12.61;47.81;95108.69;4143100;28;20529;-52
2022/05/09 01:42:35;;;;;;;8.88;2.92;;;;;;;12.53;47.73;95103.41;4127649;28;20349;-52
2022/05/09 01:44:37;;;;;;;8.32;3.40;;;;;;;12.45;48.20;95109.50;4127684;28;20494;-53
2022/05/09 01:51:23;;;;;;;6.47;2.90;;;;;;;12.37;48.08;95106.84;4143860;28;20100;-52
2022/05/09 01:53:24;;;;;;;4.95;3.03;;;;;;;12.38;47.68;95110.28;4142160;28;20046;-52
2022/05/09 01:55:26;;;;;;;7.63;2.65;;;;;;;12.36;47.64;95110.44;4142771;28;20072;-54
2022/05/09 01:57:28;;;;;;;8.38;2.88;;;;;;;12.36;47.44;95107.00;4143559;28;20116;-53
2022/05/09 01:59:31;;;;;;;6.13;2.80;;;;;;;12.29;47.54;95110.25;4143755;28;20062;-55
2022/05/09 02:01:56;;;;;;;5.88;2.70;;;;;;;12.27;47.34;95101.72;4143843;28;20049;-55
2022/05/09 02:03:58;;;;;;;3.83;2.35;;;;;;;12.31;47.50;95106.66;4140610;28;20054;-52
2022/05/09 02:06:01;;;;;;;7.47;2.63;;;;;;;12.30;47.26;95105.81;4143384;28;20064;-53
2022/05/09 02:08:02;;;;;;;8.10;2.72;;;;;;;12.30;47.16;95108.44;4135790;28;20057;-53
2022/05/09 02:10:05;;;;;;;6.47;2.95;;;;;;;12.32;47.15;95108.28;4143681;28;20207;-55
2022/05/09 02:12:09;;;;;;;3.97;2.72;;;;;;;12.32;47.29;95109.09;4143363;28;20081;-54
2022/05/09 02:14:11;;;;;;;9.57;2.93;;;;;;;12.29;46.96;95109.44;4143466;28;20120;-53
2022/05/09 02:16:13;;;;;;;6.88;2.75;;;;;;;12.29;47.30;95118.13;4143499;28;20450;-53
2022/05/09 02:18:14;;;;;;;4.22;2.50;;;;;;;12.29;47.13;95112.06;4143195;28;20090;-54
2022/05/09 02:20:16;;;;;;;12.75;3.13;;;;;;;12.29;47.17;95112.88;4143501;28;20081;-53
2022/05/09 02:22:18;;;;;;;4.68;2.50;;;;;;;12.13;47.05;95115.47;4143467;28;20136;-53
2022/05/09 02:24:21;;;;;;;7.60;3.20;;;;;;;11.98;47.46;95119.63;4141640;28;20057;-52
2022/05/09 02:26:24;;;;;;;5.53;2.78;;;;;;;11.81;47.54;95122.19;4143346;28;20119;-53
2022/05/09 02:28:26;;;;;;;8.45;2.65;;;;;;;11.72;48.40;95117.84;4143521;28;20050;-51
2022/05/09 02:30:29;;;;;;;6.68;2.75;;;;;;;11.69;48.08;95124.22;4158064;28;20056;-51
2022/05/09 02:32:31;;;;;;;5.75;2.40;;;;;;;11.72;47.44;95124.91;4143381;28;20130;-52
2022/05/09 02:34:33;;;;;;;7.15;2.80;;;;;;;11.65;47.68;95125.50;4143012;28;20054;-54
2022/05/09 02:36:35;;;;;;;5.32;2.53;;;;;;;11.64;47.98;95118.63;4143212;28;20053;-49
2022/05/09 02:38:36;;;;;;;5.25;2.47;;;;;;;11.57;47.74;95124.66;4141567;28;20054;-54
2022/05/09 02:40:38;;;;;;;5.30;2.95;;;;;;;11.55;48.06;95118.72;4143124;28;20057;-50
2022/05/09 02:42:40;;;;;;;7.80;2.90;;;;;;;11.56;48.44;95125.63;4143177;28;20144;-52
2022/05/09 02:44:42;;;;;;;9.68;3.50;;;;;;;11.54;48.62;95127.59;4143074;28;20050;-51
2022/05/09 02:46:44;;;;;;;7.43;2.85;;;;;;;11.43;48.70;95126.84;4143071;28;20054;-53
2022/05/09 02:48:46;;;;;;;7.72;3.17;;;;;;;11.35;48.43;95125.97;4132109;28;20400;-52
2022/05/09 02:50:47;;;;;;;4.88;2.80;;;;;;;11.13;48.87;95125.50;4130259;28;20100;-52
2022/05/09 02:52:51;;;;;;;6.28;2.85;;;;;;;10.86;49.80;95123.78;4142527;28;20069;-54
2022/05/09 02:54:52;;;;;;;4.82;2.97;;;;;;;10.73;50.60;95129.41;4142076;28;20426;-55
2022/05/09 02:56:54;;;;;;;7.78;2.90;;;;;;;10.64;50.71;95125.06;4142644;28;20115;-53
2022/05/09 02:58:56;;;;;;;11.23;4.15;;;;;;;10.28;52.20;95130.19;4143059;28;20524;-52
2022/05/09 03:00:58;;;;;;;5.53;3.00;;;;;;;10.09;52.46;95136.38;4143028;28;20061;-50
2022/05/09 03:05:20;;;;;;;8.68;3.00;;;;;;;10.21;52.50;95137.00;4142678;28;20066;-53
2022/05/09 03:07:22;;;;;;;7.75;3.13;;;;;;;10.22;52.41;95136.88;4142363;28;20053;-51
2022/05/09 03:09:24;;;;;;;7.38;3.42;;;;;;;10.26;52.52;95142.66;4138421;28;20118;-53
2022/05/09 03:11:26;;;;;;;9.23;3.10;;;;;;;10.43;52.25;95146.28;4142919;28;20062;-51
2022/05/09 03:13:27;;;;;;;9.57;3.13;;;;;;;10.61;52.17;95148.94;4142673;28;20125;-53
2022/05/09 03:15:33;;;;;;;5.97;2.95;;;;;;;10.83;51.09;95147.69;4142648;28;20116;-54
2022/05/09 03:17:34;;;;;;;4.65;3.05;;;;;;;11.00;50.57;95146.84;4141281;28;20176;-53
2022/05/09 03:19:37;;;;;;;4.70;3.13;;;;;;;11.09;50.42;95153.00;4142283;28;20081;-53
2022/05/09 03:21:39;;;;;;;6.28;3.13;;;;;;;11.20;50.31;95154.56;4136154;28;20120;-53
2022/05/09 03:23:40;;;;;;;6.25;3.10;;;;;;;11.26;50.40;95157.38;4124808;28;20058;-55
2022/05/09 03:25:42;;;;;;;4.78;2.97;;;;;;;11.36;50.24;95153.88;4126255;28;20105;-54
2022/05/09 03:27:44;;;;;;;5.88;3.38;;;;;;;11.45;49.82;95159.00;4126297;28;20558;-51
2022/05/09 03:29:46;;;;;;;5.47;3.17;;;;;;;11.55;50.48;95158.09;4126580;28;20448;-50
2022/05/09 03:31:47;;;;;;;6.55;3.17;;;;;;;11.62;50.13;95156.50;4126453;28;20502;-52
2022/05/09 03:33:49;;;;;;;4.45;2.95;;;;;;;11.65;49.99;95158.81;4125793;28;20161;-54
2022/05/09 03:35:52;;;;;;;10.32;3.70;;;;;;;11.71;49.68;95163.44;4126179;28;20116;-53
2022/05/09 03:37:55;;;;;;;5.68;2.95;;;;;;;11.76;49.96;95166.41;4125471;28;20050;-54
2022/05/09 03:39:57;;;;;;;9.68;3.80;;;;;;;11.83;50.04;95164.00;4126209;28;20471;-53
2022/05/09 03:41:58;;;;;;;6.55;3.38;;;;;;;11.82;50.30;95157.94;4126478;28;20054;-51
2022/05/09 03:44:00;;;;;;;6.78;3.30;;;;;;;11.90;50.28;95162.44;4126327;28;20433;-52
2022/05/09 03:46:02;;;;;;;11.93;3.83;;;;;;;11.98;50.41;95164.28;4126604;28;20069;-49
2022/05/09 03:48:04;;;;;;;10.13;3.92;;;;;;;12.00;50.11;95160.53;4124330;28;20108;-50
2022/05/09 03:50:07;;;;;;;7.78;3.72;;;;;;;12.09;49.98;95166.66;4126372;28;20127;-53
2022/05/09 03:52:09;;;;;;;8.30;4.18;;;;;;;12.13;50.02;95164.53;4126174;28;20108;-50
2022/05/09 03:54:12;;;;;;;7.28;3.95;;;;;;;12.13;50.14;95165.38;4124608;28;20061;-50
2022/05/09 03:56:14;;;;;;;5.95;3.83;;;;;;;12.17;49.95;95161.41;4126174;28;20070;-54
2022/05/09 03:58:16;;;;;;;8.38;3.90;;;;;;;12.24;50.06;95157.19;4125997;28;20051;-54
2022/05/09 04:00:20;;;;;;;11.35;4.13;;;;;;;12.31;50.09;95156.56;4126072;28;20165;-53
2022/05/09 04:02:21;;;;;;;10.57;4.15;;;;;;;12.36;49.79;95159.53;4126469;28;20051;-52
2022/05/09 04:04:23;;;;;;;10.20;4.50;;;;;;;12.44;49.68;95160.38;4141871;28;20491;-53
2022/05/09 04:06:25;;;;;;;8.82;4.32;;;;;;;12.52;49.51;95159.59;4145192;28;20108;-54
2022/05/09 04:08:27;;;;;;;9.80;4.13;;;;;;;12.52;49.35;95162.22;4143173;28;20046;-53
2022/05/09 04:10:32;;;;;;;8.25;3.97;;;;;;;12.52;49.71;95158.75;4141479;28;20050;-53
2022/05/09 04:12:33;;;;;;;18.83;4.38;;;;;;;12.47;49.98;95170.56;4145342;28;20069;-52
2022/05/09 04:16:56;;;;;;;10.90;5.20;;;;;;;12.31;50.43;95162.66;4145445;28;20058;-52
2022/05/09 04:18:59;;;;;;;18.17;4.97;;;;;;;12.38;50.17;95168.91;4144840;28;20046;-51
2022/05/09 04:21:01;;;;;;;7.63;4.15;;;;;;;12.32;49.81;95160.81;4144938;28;20054;-51
2022/05/09 04:23:03;;;;;;;11.13;3.90;;;;;;;12.33;49.74;95165.94;4143884;28;20058;-51
2022/05/09 04:25:06;;;;;;;6.50;3.90;;;;;;;12.36;49.96;95159.53;4145363;28;20058;-54
2022/05/09 04:27:08;;;;;;;13.55;5.10;;;;;;;12.37;49.78;95166.41;4145049;28;20195;-54
2022/05/09 04:29:10;;;;;;;9.93;4.20;;;;;;;12.37;50.13;95164.63;4145126;28;20049;-50
2022/05/09 04:31:11;;;;;;;10.10;4.25;;;;;;;12.28;50.60;95162.94;4145258;28;20132;-53
2022/05/09 04:33:13;;;;;;;11.20;4.38;;;;;;;12.12;51.40;95173.38;4145002;28;20524;-53
2022/05/09 04:35:19;;;;;;;8.48;3.72;;;;;;;12.03;52.20;95172.53;4144976;28;20141;-51
2022/05/09 04:37:21;;;;;;;13.75;4.60;;;;;;;11.93;52.71;95174.44;4145191;28;20287;-53
2022/05/09 04:39:23;;;;;;;10.70;4.70;;;;;;;11.86;52.87;95172.41;4143635;28;20050;-50
2022/05/09 04:41:25;;;;;;;8.95;4.70;;;;;;;11.87;52.74;95176.69;4142757;28;20133;-52
2022/05/09 04:43:28;;;;;;;11.82;4.22;;;;;;;11.99;52.82;95179.06;4144673;28;20050;-52
2022/05/09 04:45:31;;;;;;;10.23;4.88;;;;;;;12.00;52.81;95180.69;4145186;28;20414;-54
2022/05/09 04:47:34;;;;;;;8.73;4.47;;;;;;;11.98;53.24;95180.88;4144162;28;20487;-55
2022/05/09 04:49:36;;;;;;;10.50;4.47;;;;;;;12.06;52.70;95190.59;4128051;28;20118;-57
2022/05/09 04:51:38;;;;;;;7.18;4.20;;;;;;;12.13;52.78;95186.38;4128701;28;20109;-52
2022/05/09 04:53:39;;;;;;;8.30;4.50;;;;;;;12.12;52.26;95179.47;4127292;28;20108;-54
2022/05/09 04:55:41;;;;;;;11.45;5.03;;;;;;;12.13;52.53;95180.28;4128336;28;20607;-52
2022/05/09 04:57:43;;;;;;;9.27;4.82;;;;;;;12.34;52.15;95177.25;4128551;28;20062;-50
2022/05/09 04:59:45;;;;;;;9.73;4.60;;;;;;;12.62;51.23;95183.91;4141632;28;20499;-55
2022/05/09 05:01:47;;;;;;;14.52;4.95;;;;;;;12.78;50.85;95185.78;4144276;28;20077;-53
2022/05/09 05:03:48;;;;;;;9.80;4.55;;;;;;;12.96;50.36;95184.84;4139116;28;20116;-53
2022/05/09 05:05:52;;;;;;;8.25;4.07;;;;;;;13.13;50.07;95185.69;4139353;28;20095;-52
2022/05/09 05:07:54;;;;;;;11.50;4.45;;;;;;;13.26;49.47;95194.72;4143537;28;20157;-53
2022/05/09 05:10:00;;;;;;;13.40;4.90;;;;;;;13.42;49.23;95190.50;4137042;28;20104;-54
2022/05/09 05:12:04;;;;;;;10.70;5.50;;;;;;;13.55;49.12;95190.00;4139888;28;20406;-53
2022/05/09 05:14:05;;;;;;;11.55;5.53;;;;;;;13.62;49.10;95189.19;4144162;28;20115;-54
2022/05/09 05:16:07;;;;;;;10.88;5.35;;;;;;;13.57;48.83;95186.22;4143490;28;20074;-55
2022/05/09 05:18:09;;;;;;;7.85;4.13;;;;;;;13.50;49.61;95188.69;4143876;28;20069;-53
2022/05/09 05:20:13;;;;;;;10.18;5.10;;;;;;;13.42;49.03;95187.88;4144579;28;20057;-53
2022/05/09 05:22:15;;;;;;;9.38;4.88;;;;;;;13.37;48.95;95191.00;4144445;28;20117;-53
2022/05/09 05:24:18;;;;;;;10.85;5.32;;;;;;;13.45;49.11;95187.56;4142849;28;20054;-52
2022/05/09 05:26:19;;;;;;;7.07;4.82;;;;;;;13.55;48.70;95192.63;4144524;28;20050;-56
2022/05/09 05:28:21;;;;;;;7.25;4.82;;;;;;;13.69;48.46;95186.72;4144043;28;20061;-52
2022/05/09 05:30:23;;;;;;;8.10;4.90;;;;;;;13.85;47.71;95178.81;4143946;28;20057;-53
2022/05/09 05:32:27;;;;;;;9.35;5.03;;;;;;;13.91;47.68;95191.28;4144082;28;20115;-54
2022/05/09 05:34:29;;;;;;;6.53;4.97;;;;;;;14.01;47.29;95182.38;4143691;28;20473;-53
2022/05/09 05:36:30;;;;;;;8.13;5.03;;;;;;;14.14;47.60;95185.31;4143967;28;20053;-50
2022/05/09 05:38:32;;;;;;;9.02;4.65;;;;;;;14.27;47.39;95188.22;4142274;28;20045;-52
2022/05/09 05:40:34;;;;;;;9.95;5.10;;;;;;;14.37;46.81;95187.19;4143950;28;20072;-53
2022/05/09 05:42:40;;;;;;;14.00;5.50;;;;;;;14.49;46.93;95191.94;4143859;28;20070;-48
2022/05/09 05:44:42;;;;;;;7.97;5.28;;;;;;;14.57;46.60;95188.47;4143607;28;20066;-51
2022/05/09 05:46:44;;;;;;;10.90;5.07;;;;;;;14.66;46.37;95190.06;4143889;28;20049;-54
2022/05/09 05:48:45;;;;;;;13.30;4.65;;;;;;;14.68;46.41;95192.56;4143401;28;20506;-49
2022/05/09 05:50:47;;;;;;;10.02;5.13;;;;;;;14.43;46.44;95197.91;4144065;28;20213;-55
2022/05/09 05:52:49;;;;;;;10.88;5.10;;;;;;;14.41;47.02;95192.00;4143251;28;20147;-54
2022/05/09 05:54:51;;;;;;;8.43;5.82;;;;;;;14.38;46.79;95188.88;4142881;28;20108;-53
2022/05/09 05:56:53;;;;;;;12.48;5.75;;;;;;;14.46;46.37;95189.66;4143470;28;20112;-56
2022/05/09 05:58:54;;;;;;;12.23;6.03;;;;;;;14.59;46.33;95190.97;4143628;28;20050;-51
2022/05/09 06:00:56;;;;;;;12.00;5.75;;;;;;;14.74;46.03;95186.59;4143460;28;20489;-55
2022/05/09 06:02:58;;;;;;;15.98;6.78;;;;;;;14.84;45.92;95195.13;4143074;28;20052;-52
2022/05/09 06:05:08;;;;;;;10.13;5.13;;;;;;;14.94;45.52;95182.50;4143645;28;20478;-52
2022/05/09 06:07:12;;;;;;;11.38;5.65;;;;;;;15.09;45.29;95187.88;4143299;28;20049;-49
2022/05/09 06:09:15;;;;;;;11.82;5.47;;;;;;;15.23;44.93;95183.66;4142040;28;20499;-52
2022/05/09 06:11:22;;;;;;;8.45;5.90;;;;;;;15.31;45.00;95188.03;4141883;28;20081;-52
2022/05/09 06:13:24;;;;;;;16.13;6.22;;;;;;;15.38;44.72;95189.00;4126734;28;20116;-54
2022/05/09 06:15:28;;;;;;;10.43;5.32;;;;;;;15.33;44.75;95186.06;4127254;28;20113;-52
2022/05/09 06:17:30;;;;;;;13.07;7.03;;;;;;;15.42;44.42;95189.44;4126923;28;20111;-53
2022/05/09 06:19:32;;;;;;;13.35;6.75;;;;;;;15.35;44.83;95186.69;4126903;28;20054;-52
2022/05/09 06:21:37;;;;;;;10.25;5.72;;;;;;;15.28;44.83;95191.88;4127296;28;20046;-53
2022/05/09 06:23:39;;;;;;;14.93;6.40;;;;;;;15.26;45.07;95183.31;4125423;28;20062;-51
2022/05/09 06:25:43;;;;;;;11.27;6.47;;;;;;;15.41;44.90;95190.47;4126946;28;20108;-52
2022/05/09 06:27:45;;;;;;;;;;;;;;;15.40;45.06;95196.72;4127641;28;20141;-54
2022/05/09 06:29:47;;;;;;;14.20;5.63;;;;;;;15.26;45.13;95190.41;4125574;28;19925;-55
2022/05/09 06:31:52;;;;;;;13.90;6.63;;;;;;;15.30;45.22;95189.06;4126743;28;20073;-53
2022/05/09 06:33:54;;;;;;;12.75;6.40;;;;;;;15.44;44.92;95188.28;4126657;28;20058;-52
2022/05/09 06:36:01;;;;;;;10.80;6.07;;;;;;;15.65;45.15;95189.44;4127076;28;20126;-55
2022/05/09 06:38:05;;;;;;;15.73;7.03;;;;;;;15.86;44.70;95191.44;4125442;28;20392;-51
2022/05/09 06:40:09;;;;;;;12.30;6.50;;;;;;;16.04;44.28;95191.09;4127020;28;20149;-50
2022/05/09 06:42:11;;;;;;;13.07;5.85;;;;;;;16.22;43.41;95181.00;4127085;28;20109;-55
2022/05/09 06:44:13;;;;;;;13.05;6.75;;;;;;;16.05;43.30;95184.81;4126933;28;20109;-51
2022/05/09 06:46:15;;;;;;;18.83;7.10;;;;;;;15.88;43.91;95187.59;4126602;28;20097;-52
2022/05/09 06:48:16;;;;;;;14.02;6.28;;;;;;;15.77;44.15;95190.69;4132477;28;20111;-51
2022/05/09 06:50:21;;;;;;;12.50;6.88;;;;;;;15.91;44.14;95183.78;4143081;28;20053;-51
2022/05/09 06:52:22;;;;;;;21.40;7.43;;;;;;;16.12;43.81;95188.38;4143157;28;20054;-53
2022/05/09 06:54:24;;;;;;;12.48;6.63;;;;;;;16.26;43.91;95184.91;4141597;28;20054;-53
2022/05/09 06:56:26;;;;;;;11.40;6.88;;;;;;;16.37;43.66;95187.09;4142622;28;20586;-54
2022/05/09 06:58:28;;;;;;;12.73;7.15;;;;;;;16.53;43.18;95186.06;4143102;28;20062;-54
2022/05/09 07:00:30;;;;;;;16.98;7.45;;;;;;;16.48;43.47;95185.00;4142871;28;20521;-53
2022/05/09 07:02:31;;;;;;;11.40;6.70;;;;;;;16.56;43.43;95174.31;4142889;28;20046;-53
2022/05/09 07:04:33;;;;;;;14.57;7.60;;;;;;;16.71;43.54;95176.94;4142218;28;20367;-56
2022/05/09 07:06:35;;;;;;;14.07;8.00;;;;;;;16.54;43.20;95181.59;4142855;28;20157;-54
2022/05/09 07:08:38;;;;;;;14.10;7.07;;;;;;;16.38;43.79;95183.44;4141183;28;20317;-52
2022/05/09 07:10:41;;;;;;;19.55;7.72;;;;;;;16.41;44.15;95179.59;4142162;28;20557;-50
2022/05/09 07:12:48;;;;;;;11.63;7.23;;;;;;;16.58;43.41;95177.59;4138123;28;20085;-52
2022/05/09 07:14:50;;;;;;;13.93;6.35;;;;;;;16.82;42.88;95178.31;4140823;28;20783;-53
2022/05/09 07:16:51;;;;;;;9.38;7.13;;;;;;;16.94;42.44;95176.81;4142639;28;20069;-52
2022/05/09 07:18:53;;;;;;;12.73;6.93;;;;;;;16.91;42.17;95170.09;4157025;28;20677;-53
2022/05/09 07:20:56;;;;;;;15.80;6.55;;;;;;;16.69;42.57;95178.94;4142534;28;20604;-55
2022/05/09 07:23:07;;;;;;;8.57;5.72;;;;;;;16.92;42.41;95177.00;4141302;28;20119;-53
2022/05/09 07:25:13;;;;;;;13.73;6.75;;;;;;;17.14;42.95;95174.38;4142761;28;20062;-52
2022/05/09 07:27:17;;;;;;;13.18;5.90;;;;;;;17.43;41.85;95172.66;4142533;28;20141;-53
2022/05/09 07:29:19;;;;;;;16.17;5.70;;;;;;;17.69;41.05;95180.00;4142240;28;20080;-52
2022/05/09 07:31:20;;;;;;;7.85;4.80;;;;;;;17.90;40.50;95176.53;4142655;28;20259;-52
2022/05/09 07:33:22;;;;;;;9.18;4.82;;;;;;;18.06;39.52;95176.22;4142040;28;20141;-52
2022/05/09 07:35:24;;;;;;;7.57;4.55;;;;;;;17.97;38.96;95172.09;4142481;28;20050;-51
2022/05/09 07:37:26;;;;;;;8.20;4.90;;;;;;;18.02;38.75;95169.66;4142159;28;20084;-54
2022/05/09 07:39:28;;;;;;;7.20;4.35;;;;;;;17.84;38.70;95175.47;4139376;28;20410;-54
2022/05/09 07:41:33;;;;;;;7.05;4.07;;;;;;;17.48;38.98;95178.19;4142683;28;20077;-53
2022/05/09 07:43:34;;;;;;;6.55;4.00;;;;;;;17.26;39.45;95177.38;4141987;28;20066;-53
2022/05/09 07:45:36;;;;;;;7.22;3.72;;;;;;;17.33;38.58;95175.59;4142331;28;20054;-57
2022/05/09 07:47:39;;;;;;;8.77;3.55;;;;;;;17.39;38.91;95174.84;4140921;28;20057;-56
2022/05/09 07:49:43;;;;;;;5.22;3.53;;;;;;;17.40;39.25;95176.47;4125948;28;20412;-54
2022/05/09 07:51:47;;;;;;;8.82;3.30;;;;;;;17.55;39.22;95179.06;4126329;28;20399;-54
2022/05/09 07:53:49;;;;;;;6.55;3.40;;;;;;;17.37;39.80;95176.88;4124862;28;20112;-54
2022/05/09 07:55:51;;;;;;;8.57;3.97;;;;;;;17.58;39.67;95182.16;4126093;28;20432;-54
2022/05/09 07:57:53;;;;;;;8.65;3.10;;;;;;;17.76;39.40;95180.88;4126153;28;20050;-53
2022/05/09 07:59:58;;;;;;;6.23;2.90;;;;;;;17.64;39.05;95177.94;4126077;28;20487;-54
2022/05/09 08:02:00;;;;;;;8.48;3.60;;;;;;;17.69;39.59;95182.66;4126229;28;20642;-54
2022/05/09 08:04:03;;;;;;;9.40;4.15;;;;;;;17.84;39.02;95183.41;4136485;28;20192;-52
2022/05/09 08:06:05;;;;;;;5.50;3.10;;;;;;;17.90;38.41;95176.53;4142132;28;20066;-52
2022/05/09 08:08:07;;;;;;;6.70;3.13;;;;;;;18.05;38.59;95179.06;4140925;28;20502;-55
2022/05/09 08:10:11;;;;;;;4.82;2.88;;;;;;;18.28;37.28;95178.81;4142221;28;20046;-52
2022/05/09 08:12:13;;;;;;;5.10;2.80;;;;;;;18.45;36.82;95174.00;4141714;28;20126;-55
2022/05/09 08:14:14;;;;;;;7.22;2.85;;;;;;;18.51;36.30;95178.53;4140323;28;20058;-55
2022/05/09 08:16:19;;;;;;;7.32;2.83;;;;;;;18.56;36.18;95178.75;4142203;28;20258;-54
2022/05/09 08:18:21;;;;;;;6.10;2.88;;;;;;;18.42;36.36;95177.88;4142000;28;20050;-51
2022/05/09 08:20:24;;;;;;;6.10;3.43;;;;;;;18.47;36.21;95174.63;4157339;28;20153;-52
2022/05/09 08:22:31;;;;;;;8.38;2.70;;;;;;;18.74;36.51;95172.94;4157128;28;20060;-55
2022/05/09 08:24:32;;;;;;;10.73;3.40;;;;;;;18.97;36.20;95175.28;4140606;28;20053;-54
2022/05/09 08:26:35;;;;;;;8.48;3.30;;;;;;;19.22;34.71;95173.72;4142092;28;20100;-54
2022/05/09 08:28:36;;;;;;;7.60;2.92;;;;;;;19.37;33.94;95162.91;4142232;28;20057;-52
2022/05/09 08:30:39;;;;;;;4.22;2.92;;;;;;;19.26;34.55;95170.66;4142174;28;20415;-55
2022/05/09 08:32:40;;;;;;;7.32;2.75;;;;;;;19.13;32.12;95166.97;4142216;28;20455;-55
2022/05/09 08:34:42;;;;;;;6.65;2.50;;;;;;;19.27;31.45;95166.97;4141815;28;20108;-53
2022/05/09 08:36:53;;;;;;;10.02;2.40;;;;;;;19.20;31.64;95169.63;4142315;28;20058;-52
2022/05/09 08:38:55;;;;;;;5.82;2.22;;;;;;;19.17;31.75;95175.34;4140884;28;20062;-51
2022/05/09 08:41:22;;;;;;;6.68;2.45;;;;;;;19.33;32.43;95174.97;4142411;28;20139;-48
2022/05/09 08:44:02;;;;;;;9.32;2.40;;;;;;;19.34;30.19;95167.84;4141580;28;20050;-51
2022/05/09 08:46:15;;;;;;;4.47;1.73;;;;;;;19.64;30.73;95169.09;4142137;28;20239;-52
2022/05/09 08:49:02;;;;;;;4.97;2.63;;;;;;;19.62;31.24;95165.81;4140172;28;20062;-55
2022/05/09 08:51:13;;;;;;;3.60;2.00;;;;;;;19.48;32.55;95164.16;4142810;28;20112;-53
2022/05/09 08:53:22;;;;;;;7.47;2.78;;;;;;;19.24;33.53;95171.69;4142597;28;20620;-54
2022/05/09 08:55:27;;;;;;;7.95;2.53;;;;;;;19.51;33.44;95170.91;4144808;28;20049;-53
2022/05/09 08:57:36;;;;;;;4.85;2.65;;;;;;;19.55;33.11;95169.47;4144917;28;20469;-53
2022/05/09 08:59:42;;;;;;;5.78;2.85;;;;;;;19.81;32.62;95166.88;4143537;28;20053;-56
2022/05/09 09:01:52;;;;;;;5.22;2.60;;;;;;;20.03;32.26;95161.34;4127343;28;20058;-57
2022/05/09 09:04:01;;;;;;;5.43;2.65;;;;;;;19.84;31.49;95166.44;4143103;28;20399;-52
2022/05/09 09:06:12;;;;;;;4.88;2.17;;;;;;;19.78;32.26;95164.59;4144618;28;20116;-53
2022/05/09 09:08:29;;;;;;;7.82;2.67;;;;;;;19.58;32.56;95159.25;4141775;28;20061;-57
2022/05/09 09:10:47;;;;;;;7.85;2.42;;;;;;;19.61;33.07;95158.84;4143746;28;20201;-56
2022/05/09 09:13:06;;;;;;;11.45;2.80;;;;;;;19.62;32.81;95163.16;4144670;28;20435;-56
2022/05/09 09:15:31;;;;;;;4.43;2.47;;;;;;;19.50;32.13;95159.44;4135201;28;20049;-56
2022/05/09 09:17:45;;;;;;;3.42;2.35;;;;;;;19.99;31.83;95158.25;4144511;28;20435;-56
2022/05/09 09:19:59;;;;;;;8.05;2.08;;;;;;;20.46;31.06;95156.31;4144367;28;20147;-55
2022/05/09 09:22:19;;;;;;;3.85;2.08;;;;;;;20.94;30.11;95151.66;4144433;28;20050;-53
2022/05/09 09:24:58;;;;;;;3.65;1.80;;;;;;;21.23;29.12;95152.94;4142846;28;20081;-55
2022/05/09 09:27:25;;;;;;;5.18;2.25;;;;;;;21.40;29.13;95148.75;4144486;28;20465;-55
2022/05/09 09:29:30;;;;;;;8.43;2.08;;;;;;;21.37;28.01;95145.69;4144307;28;20049;-55
2022/05/09 09:31:35;;;;;;;8.18;2.42;;;;;;;20.80;27.36;95146.41;4144378;28;20116;-56
2022/05/09 09:33:44;;;;;;;7.20;2.10;;;;;;;20.86;28.00;95140.25;4142297;28;20049;-56
2022/05/09 09:35:54;;;;;;;5.80;2.28;;;;;;;20.99;28.07;95136.69;4142867;28;20065;-58
2022/05/09 09:38:07;;;;;;;5.50;2.28;;;;;;;21.19;28.32;95143.75;4142929;28;20057;-56
2022/05/09 09:40:09;;;;;;;9.07;2.00;;;;;;;21.48;26.70;95140.50;4144061;28;20435;-55
2022/05/09 09:42:12;;;;;;;8.10;2.47;;;;;;;21.51;26.35;95136.59;4143731;28;20558;-55
2022/05/09 09:44:17;;;;;;;3.67;1.90;;;;;;;21.24;24.99;95131.41;4143437;28;20061;-54
2022/05/09 09:46:19;;;;;;;4.32;1.63;;;;;;;21.30;25.13;95134.28;4143671;28;20049;-54
2022/05/09 09:48:22;;;;;;;4.10;2.38;;;;;;;21.22;25.66;95133.47;4143084;28;20054;-53
2022/05/09 09:50:25;;;;;;;6.00;2.20;;;;;;;21.30;24.34;95134.28;4142065;28;20446;-54
2022/05/09 09:52:41;;;;;;;5.10;2.10;;;;;;;21.27;23.09;95139.00;4143338;28;20061;-54
2022/05/09 09:54:48;;;;;;;3.13;1.50;;;;;;;21.15;22.57;95134.56;4140363;28;20050;-54